Last 6 Hours

AM-Scott Top 8120'

15 Minute Data | America/Los_Angeles
as of 9/3/26 12:08 AM PDT
Date & Time Temp (°F) RH (%) Dew Pt (°F) Wet Bulb (°F) Wind Dir (°) Wind Spd (mph) Wind Gust (mph) WindChill (°F) Daily Min Temp (°F) Daily Max Temp (°F)
9/3/26 - 0000 40.2 87 36.6 38.4 NNW | 333 11.6 18.1 33.1 36.0 48.9
9/2/26 - 2345 40.4 86 36.6 38.4 NNW | 342 11.8 19.6 34.9 36.0 48.9
9/2/26 - 2330 40.5 85 36.3 38.4 NNW | 330 12.9 18.1 33.2 36.0 48.9
9/2/26 - 2315 40.6 86 36.7 38.6 NNW | 329 11.5 18.4 33.8 36.0 48.9
9/2/26 - 2300 40.7 84 36.4 38.5 NNW | 327 13.0 22.0 32.4 36.0 48.9
9/2/26 - 2245 40.5 87 37.1 38.7 NNW | 340 12.2 19.5 34.7 36.0 48.9
9/2/26 - 2230 40.4 87 37.0 38.6 NNW | 343 12.1 21.6 34.4 36.0 48.9
9/2/26 - 2215 40.4 88 37.2 38.8 NNW | 332 13.5 22.6 32.5 36.0 48.9
9/2/26 - 2200 40.6 87 37.1 38.8 NNW | 335 15.3 28.4 34.8 36.0 48.9
9/2/26 - 2145 40.7 86 37.0 38.8 NNW | 330 14.2 25.4 31.9 36.0 48.9
9/2/26 - 2130 40.8 84 36.3 38.5 NNW | 329 13.1 18.8 33.2 36.0 48.9
9/2/26 - 2115 40.8 87 37.2 39.0 NW | 325 14.9 24.5 34.5 36.0 48.9
9/2/26 - 2100 40.9 87 37.3 39.1 NW | 325 13.4 20.9 32.0 36.0 48.9
9/2/26 - 2045 40.9 86 37.2 39.1 NNW | 334 12.3 21.2 34.9 36.0 48.9
9/2/26 - 2030 40.9 86 37.2 39.0 NNW | 342 11.2 21.7 34.5 36.0 48.9
9/2/26 - 2015 41.1 86 37.1 39.0 NNW | 348 12.5 21.0 33.0 36.0 48.9
9/2/26 - 2000 41.1 88 37.7 39.4 NNW | 332 12.9 21.7 34.9 36.0 48.9
9/2/26 - 1945 41.2 88 37.9 39.6 N | 352 11.2 16.5 35.3 36.0 48.9
9/2/26 - 1930 41.4 88 38.1 39.7 NNW | 347 12.0 20.9 36.2 36.0 48.9
9/2/26 - 1915 41.8 85 37.6 39.6 N | 354 12.0 19.7 36.1 36.0 48.9
9/2/26 - 1900 41.8 85 37.6 39.6 N | 2 11.9 23.1 37.0 36.0 48.9
9/2/26 - 1845 42.3 83 37.4 39.8 NNW | 334 12.7 23.0 33.5 36.0 48.9
9/2/26 - 1830 42.7 81 37.1 39.8 N | 358 14.1 25.1 33.4 36.0 48.9
9/2/26 - 1815 42.9 79 36.9 39.8 NNW | 340 14.7 27.3 36.7 36.0 48.9
Max 42.9 88 38.1 39.8 - 15.3 28.4 37.0 36.0 48.9
Avg 41.1 86 37.1 39.0 - 12.8 21.6 34.2 - -
Min 40.2 79 36.3 38.4 - 11.2 16.5 31.9 36.0 48.9